createdAt,value
2018-04-09T00:01:58.486Z,11.53
2018-04-09T00:04:25.971Z,10.83
2018-04-09T00:06:54.226Z,10.87
2018-04-09T00:09:21.736Z,10.13
2018-04-09T00:11:49.271Z,11.00
2018-04-09T00:14:17.542Z,12.30
2018-04-09T00:16:45.789Z,11.03
2018-04-09T00:19:13.293Z,10.77
2018-04-09T00:21:40.794Z,9.30
2018-04-09T00:24:08.294Z,9.53
2018-04-09T00:26:36.570Z,10.90
2018-04-09T00:29:04.808Z,8.53
2018-04-09T00:31:32.307Z,9.00
2018-04-09T00:34:00.602Z,8.60
2018-04-09T00:36:28.169Z,10.30
2018-04-09T00:38:55.646Z,8.23
2018-04-09T00:41:23.123Z,9.17
2018-04-09T00:43:50.613Z,7.70
2018-04-09T00:46:18.087Z,9.20
2018-04-09T00:48:46.350Z,8.20
2018-04-09T00:51:14.605Z,7.90
2018-04-09T00:53:53.997Z,7.40
2018-04-09T00:56:21.476Z,7.10
2018-04-09T00:58:49.028Z,6.50
2018-04-09T01:01:16.498Z,8.80
2018-04-09T01:03:44.053Z,8.00
2018-04-09T01:06:11.534Z,7.30
2018-04-09T01:08:39.038Z,6.83
2018-04-09T01:11:07.315Z,7.37
2018-04-09T01:13:35.572Z,7.93
2018-04-09T01:16:03.060Z,6.63
2018-04-09T01:18:30.560Z,7.53
2018-04-09T01:20:58.057Z,6.90
2018-04-09T01:23:26.298Z,6.03
2018-04-09T01:25:54.297Z,7.20
2018-04-09T01:28:21.776Z,7.30
2018-04-09T01:30:50.046Z,7.20
2018-04-09T01:33:17.579Z,7.90
2018-04-09T01:35:45.093Z,6.90
2018-04-09T01:38:12.582Z,8.20
2018-04-09T01:40:40.099Z,7.53
2018-04-09T01:43:07.648Z,8.13
2018-04-09T01:45:35.903Z,9.00
2018-04-09T01:48:03.584Z,8.93
2018-04-09T01:50:31.845Z,8.70
2018-04-09T01:52:59.331Z,9.03
2018-04-09T01:55:26.839Z,9.13
2018-04-09T01:57:54.317Z,8.43
2018-04-09T02:00:21.850Z,9.37
2018-04-09T02:02:49.358Z,10.43
2018-04-09T02:05:17.630Z,8.87
2018-04-09T02:07:45.901Z,9.30
2018-04-09T02:10:13.540Z,8.33
2018-04-09T02:12:41.050Z,10.07
2018-04-09T02:15:08.580Z,11.37
2018-04-09T02:17:36.877Z,10.20
2018-04-09T02:20:05.123Z,10.10
2018-04-09T02:22:32.615Z,11.63
2018-04-09T02:25:00.861Z,10.60
2018-04-09T02:27:28.386Z,10.83
2018-04-09T02:29:55.882Z,10.77
2018-04-09T02:32:23.419Z,10.53
2018-04-09T02:34:50.908Z,11.00
2018-04-09T02:37:19.513Z,12.63
2018-04-09T02:39:47.764Z,12.17
2018-04-09T02:42:15.276Z,11.97
2018-04-09T02:44:42.777Z,12.30
2018-04-09T02:47:10.298Z,11.90
2018-04-09T02:49:37.855Z,11.80
2018-04-09T02:52:05.327Z,12.43
2018-04-09T02:54:32.813Z,11.97
2018-04-09T02:57:00.328Z,12.50
2018-04-09T02:59:27.824Z,12.30
2018-04-09T03:01:55.319Z,13.30
2018-04-09T03:04:23.558Z,14.63
2018-04-09T03:06:51.057Z,15.00
2018-04-09T03:09:19.311Z,14.73
2018-04-09T03:11:46.803Z,13.00
2018-04-09T03:14:15.093Z,15.40
2018-04-09T03:16:42.588Z,14.70
2018-04-09T03:19:10.080Z,14.77
2018-04-09T03:21:38.344Z,15.37
2018-04-09T03:24:05.818Z,14.57
2018-04-09T03:26:34.093Z,13.83
2018-04-09T03:29:02.367Z,14.37
2018-04-09T03:31:30.673Z,12.70
2018-04-09T03:33:58.216Z,14.77
2018-04-09T03:36:25.699Z,15.57
2018-04-09T03:38:53.206Z,13.57
2018-04-09T03:41:20.704Z,15.00
2018-04-09T03:43:48.177Z,15.30
2018-04-09T03:46:15.684Z,14.90
2018-04-09T03:48:43.177Z,15.20
2018-04-09T03:51:11.474Z,14.23
2018-04-09T03:53:38.995Z,15.47
2018-04-09T03:56:06.527Z,15.90
2018-04-09T03:58:34.885Z,18.60
2018-04-09T04:01:02.531Z,15.03
2018-04-09T04:03:30.054Z,16.60
2018-04-09T04:05:57.541Z,15.67
2018-04-09T04:08:25.022Z,15.47
2018-04-09T04:10:52.541Z,18.00
2018-04-09T04:13:20.800Z,14.53
2018-04-09T04:16:00.370Z,16.20
2018-04-09T04:18:40.550Z,18.67
2018-04-09T04:21:20.643Z,16.90
2018-04-09T04:23:48.932Z,18.63
2018-04-09T04:26:16.795Z,16.57
2018-04-09T04:28:44.579Z,16.40
2018-04-09T04:31:12.922Z,18.77
2018-04-09T04:33:40.484Z,17.40
2018-04-09T04:36:07.956Z,16.77
2018-04-09T04:38:35.455Z,18.20
2018-04-09T04:41:02.946Z,16.77
2018-04-09T04:43:30.428Z,18.27
2018-04-09T04:45:57.913Z,16.90
2018-04-09T04:48:25.421Z,18.07
2018-04-09T04:50:52.950Z,18.03
2018-04-09T04:53:20.460Z,17.67
2018-04-09T04:55:49.882Z,18.00
2018-04-09T04:58:17.348Z,19.27
2018-04-09T05:00:46.248Z,18.13
2018-04-09T05:03:14.479Z,17.70
2018-04-09T05:05:41.972Z,18.97
2018-04-09T05:08:09.549Z,20.33
2018-04-09T05:10:37.823Z,19.17
2018-04-09T05:13:06.122Z,18.83
2018-04-09T05:15:33.601Z,20.30
2018-04-09T05:18:01.105Z,21.07
2018-04-09T05:20:29.378Z,20.03
2018-04-09T05:22:56.878Z,20.73
2018-04-09T05:25:24.393Z,20.83
2018-04-09T05:27:51.904Z,20.60
2018-04-09T05:30:19.402Z,20.83
2018-04-09T05:32:46.915Z,19.47
2018-04-09T05:35:14.428Z,19.37
2018-04-09T05:37:41.949Z,19.53
2018-04-09T05:40:09.428Z,19.63
2018-04-09T05:42:36.983Z,22.60
2018-04-09T05:45:04.490Z,26.60
2018-04-09T05:47:32.024Z,26.90
2018-04-09T05:49:59.576Z,25.77
2018-04-09T05:52:27.081Z,27.23
2018-04-09T05:54:54.562Z,31.67
2018-04-09T05:57:22.067Z,28.10
2018-04-09T05:59:49.549Z,30.47
2018-04-09T06:02:17.817Z,35.70
2018-04-09T06:04:46.089Z,36.67
2018-04-09T06:07:13.608Z,43.10
2018-04-09T06:09:41.110Z,40.40
2018-04-09T06:12:08.577Z,43.33
2018-04-09T06:14:36.896Z,38.40
2018-04-09T06:17:04.403Z,39.30
2018-04-09T06:19:31.898Z,37.93
2018-04-09T06:21:59.374Z,37.17
2018-04-09T06:24:26.898Z,34.70
2018-04-09T06:26:54.375Z,35.67
2018-04-09T06:29:21.887Z,31.07
2018-04-09T06:31:49.418Z,35.10
2018-04-09T06:34:23.377Z,35.27
2018-04-09T06:36:51.627Z,33.63
2018-04-09T06:39:19.148Z,32.30
2018-04-09T06:41:46.639Z,35.67
2018-04-09T06:44:14.139Z,34.43
2018-04-09T06:46:42.388Z,34.50
2018-04-09T06:49:09.949Z,35.10
2018-04-09T06:51:37.431Z,38.03
2018-04-09T06:54:05.686Z,39.50
2018-04-09T06:56:33.182Z,42.77
2018-04-09T06:59:00.651Z,40.90
2018-04-09T07:01:28.130Z,45.83
2018-04-09T07:03:55.621Z,53.43
2018-04-09T07:06:23.127Z,55.10
2018-04-09T07:08:50.691Z,50.17
2018-04-09T07:11:18.187Z,51.83
2018-04-09T07:13:45.712Z,54.43
2018-04-09T07:16:13.215Z,54.77
2018-04-09T07:18:40.740Z,53.33
2018-04-09T07:21:08.225Z,58.20
2018-04-09T07:23:35.714Z,63.80
2018-04-09T07:26:03.233Z,59.13
2018-04-09T07:28:30.816Z,55.33
2018-04-09T07:30:58.310Z,62.20
2018-04-09T07:33:25.804Z,66.90
2018-04-09T07:35:53.536Z,62.40
2018-04-09T07:38:21.142Z,71.37
2018-04-09T07:40:48.608Z,64.27
2018-04-09T07:43:16.116Z,68.83
2018-04-09T07:45:43.607Z,72.80
2018-04-09T07:48:11.297Z,73.27
2018-04-09T07:50:38.778Z,72.67
2018-04-09T07:53:07.054Z,77.43
2018-04-09T07:55:35.305Z,73.80
2018-04-09T07:58:02.791Z,73.87
2018-04-09T08:00:30.288Z,76.53
2018-04-09T08:02:57.768Z,77.30
2018-04-09T08:05:25.282Z,80.23
2018-04-09T08:07:52.772Z,72.63
2018-04-09T08:10:20.542Z,78.07
2018-04-09T08:12:48.055Z,70.37
2018-04-09T08:15:16.330Z,80.30
2018-04-09T08:17:44.613Z,78.90
2018-04-09T08:20:15.229Z,74.60
2018-04-09T08:22:42.729Z,72.97
2018-04-09T08:25:10.244Z,71.60
2018-04-09T08:27:37.718Z,72.60
2018-04-09T08:30:05.240Z,80.37
2018-04-09T08:32:32.722Z,73.10
2018-04-09T08:35:00.234Z,75.80
2018-04-09T08:37:27.751Z,77.50
2018-04-09T08:39:56.032Z,73.33
2018-04-09T08:42:24.270Z,77.60
2018-04-09T08:44:51.759Z,76.57
2018-04-09T08:47:19.264Z,75.07
2018-04-09T08:49:46.790Z,78.40
2018-04-09T08:52:15.051Z,76.30
2018-04-09T08:54:43.069Z,75.27
2018-04-09T08:57:10.706Z,73.03
2018-04-09T08:59:38.982Z,77.80
2018-04-09T09:02:07.296Z,76.30
2018-04-09T09:04:34.834Z,79.27
2018-04-09T09:07:03.164Z,77.50
2018-04-09T09:09:30.708Z,76.43
2018-04-09T09:11:58.313Z,68.77
2018-04-09T09:14:25.790Z,75.37
2018-04-09T09:16:53.298Z,74.90
2018-04-09T09:19:20.823Z,72.30
2018-04-09T09:21:48.508Z,72.10
2018-04-09T09:24:16.070Z,72.67
2018-04-09T09:26:43.631Z,69.10
2018-04-09T09:29:11.128Z,68.90
2018-04-09T09:31:38.613Z,69.93
2018-04-09T09:34:06.122Z,70.47
2018-04-09T09:36:33.724Z,67.87
2018-04-09T09:39:02.250Z,65.60
2018-04-09T09:41:29.758Z,66.90
2018-04-09T09:43:58.098Z,67.50
2018-04-09T09:46:25.652Z,64.43
2018-04-09T09:48:53.990Z,69.90
2018-04-09T09:51:21.549Z,65.40
2018-04-09T09:53:49.699Z,64.37
2018-04-09T09:56:17.566Z,62.47
2018-04-09T09:58:45.970Z,66.90
2018-04-09T10:01:13.465Z,66.80
2018-04-09T10:03:40.949Z,63.63
2018-04-09T10:06:08.461Z,66.10
2018-04-09T10:08:35.991Z,69.70
2018-04-09T10:11:04.830Z,64.93
2018-04-09T10:13:32.439Z,62.97
2018-04-09T10:16:01.700Z,64.50
2018-04-09T10:18:29.298Z,70.10
2018-04-09T10:20:56.810Z,66.17
2018-04-09T10:23:24.362Z,67.90
2018-04-09T10:25:52.472Z,65.50
2018-04-09T10:28:20.042Z,63.37
2018-04-09T10:30:47.541Z,63.47
2018-04-09T10:33:15.061Z,57.70
2018-04-09T10:35:42.557Z,56.47
2018-04-09T10:38:10.102Z,58.47
2018-04-09T10:40:38.382Z,56.33
2018-04-09T10:43:06.649Z,54.87
2018-04-09T10:45:34.363Z,60.57
2018-04-09T10:48:01.907Z,61.20
2018-04-09T10:50:29.433Z,54.90
2018-04-09T10:52:56.944Z,62.43
2018-04-09T10:55:24.454Z,62.93
2018-04-09T10:57:52.034Z,59.13
2018-04-09T11:00:20.319Z,60.57
2018-04-09T11:02:47.819Z,60.37
2018-04-09T11:05:15.373Z,61.03
2018-04-09T11:07:42.989Z,59.13
2018-04-09T11:10:10.519Z,56.07
2018-04-09T11:12:38.025Z,56.60
2018-04-09T11:15:05.862Z,59.13
2018-04-09T11:17:33.388Z,55.43
2018-04-09T11:20:00.867Z,59.30
2018-04-09T11:22:28.552Z,58.53
2018-04-09T11:25:09.475Z,53.60
2018-04-09T11:27:38.382Z,59.57
2018-04-09T11:30:06.057Z,59.07
2018-04-09T11:32:33.612Z,59.57
2018-04-09T11:35:01.119Z,59.50
2018-04-09T11:37:29.663Z,55.50
2018-04-09T11:39:57.934Z,56.53
2018-04-09T11:42:25.443Z,57.07
2018-04-09T11:44:52.975Z,57.90
2018-04-09T11:47:20.458Z,56.67
2018-04-09T11:49:47.949Z,58.63
2018-04-09T11:52:15.461Z,57.83
2018-04-09T11:54:43.701Z,56.27
2018-04-09T11:57:11.204Z,59.97
2018-04-09T11:59:39.438Z,59.03
2018-04-09T12:02:07.074Z,57.20
2018-04-09T12:04:34.551Z,61.50
2018-04-09T12:07:02.102Z,58.97
2018-04-09T12:09:29.865Z,64.53
2018-04-09T12:11:57.340Z,61.23
2018-04-09T12:14:24.845Z,63.27
2018-04-09T12:16:53.109Z,65.60
2018-04-09T12:19:21.340Z,65.73
2018-04-09T12:21:48.882Z,63.10
2018-04-09T12:24:16.408Z,66.57
2018-04-09T12:26:43.913Z,66.83
2018-04-09T12:29:11.392Z,65.43
2018-04-09T12:31:40.526Z,66.50
2018-04-09T12:34:08.807Z,68.80
2018-04-09T12:36:36.419Z,67.40
2018-04-09T12:39:03.910Z,70.20
2018-04-09T12:41:31.514Z,72.40
2018-04-09T12:43:59.028Z,69.23
2018-04-09T12:46:26.559Z,74.17
2018-04-09T12:48:54.059Z,72.30
2018-04-09T12:51:22.155Z,72.70
2018-04-09T12:53:49.921Z,76.03
2018-04-09T12:56:17.403Z,74.33
2018-04-09T12:58:44.908Z,72.37
2018-04-09T13:01:13.208Z,70.60
2018-04-09T13:03:40.842Z,73.27
2018-04-09T13:06:08.419Z,73.93
2018-04-09T13:08:35.936Z,69.83
2018-04-09T13:11:03.784Z,68.23
2018-04-09T13:13:31.713Z,67.00
2018-04-09T13:16:00.501Z,70.10
2018-04-09T13:18:27.964Z,71.80
2018-04-09T13:20:56.225Z,70.00
2018-04-09T13:23:23.698Z,68.90
2018-04-09T13:25:51.954Z,67.70
2018-04-09T13:28:19.452Z,69.27
2018-04-09T13:30:47.061Z,68.57
2018-04-09T13:33:14.580Z,70.33
2018-04-09T13:35:42.164Z,70.80
2018-04-09T13:38:10.508Z,72.40
2018-04-09T13:40:38.285Z,66.57
2018-04-09T13:43:05.778Z,68.57
2018-04-09T13:45:33.325Z,72.10
2018-04-09T13:48:00.880Z,73.17
2018-04-09T13:50:28.377Z,67.23
2018-04-09T13:52:55.892Z,69.90
2018-04-09T13:55:23.506Z,68.80
2018-04-09T13:57:51.828Z,71.13
2018-04-09T14:00:19.352Z,68.77
2018-04-09T14:02:47.755Z,63.10
2018-04-09T14:05:15.264Z,68.70
2018-04-09T14:07:42.752Z,67.87
2018-04-09T14:10:10.992Z,65.67
2018-04-09T14:12:38.478Z,68.10
2018-04-09T14:15:06.757Z,68.50
2018-04-09T14:17:34.257Z,71.40
2018-04-09T14:20:01.729Z,69.30
2018-04-09T14:22:29.227Z,67.20
2018-04-09T14:24:56.708Z,66.70
2018-04-09T14:27:24.216Z,67.63
2018-04-09T14:29:51.709Z,67.00
2018-04-09T14:32:19.201Z,67.80
2018-04-09T14:34:46.685Z,66.23
2018-04-09T14:37:14.177Z,67.33
2018-04-09T14:39:42.448Z,70.40
2018-04-09T14:42:09.922Z,64.50
2018-04-09T14:44:37.445Z,64.03
2018-04-09T14:47:05.695Z,63.70
2018-04-09T14:49:33.190Z,67.73
2018-04-09T14:52:00.776Z,63.43
2018-04-09T14:54:28.278Z,67.10
2018-04-09T14:56:55.767Z,69.10
2018-04-09T14:59:23.283Z,63.53
2018-04-09T15:01:50.768Z,64.10
2018-04-09T15:04:18.624Z,63.43
2018-04-09T15:06:46.622Z,68.57
2018-04-09T15:09:14.538Z,68.40
2018-04-09T15:11:42.030Z,64.27
2018-04-09T15:14:09.508Z,67.80
2018-04-09T15:16:37.000Z,69.50
2018-04-09T15:19:05.370Z,67.00
2018-04-09T15:21:33.675Z,64.90
2018-04-09T15:24:01.264Z,68.17
2018-04-09T15:26:28.838Z,70.93
2018-04-09T15:28:56.312Z,68.03
2018-04-09T15:31:23.841Z,64.87
2018-04-09T15:33:51.340Z,65.63
2018-04-09T15:36:18.889Z,66.53
2018-04-09T15:38:46.423Z,65.60
2018-04-09T15:41:13.922Z,63.50
2018-04-09T15:43:41.456Z,66.90
2018-04-09T15:46:08.932Z,63.80
2018-04-09T15:48:36.422Z,64.30
2018-04-09T15:51:04.681Z,68.33
2018-04-09T15:53:32.161Z,66.07
2018-04-09T15:56:00.490Z,63.00
2018-04-09T15:58:27.981Z,66.40
2018-04-09T16:00:55.487Z,63.33
2018-04-09T16:03:23.004Z,65.17
2018-04-09T16:05:50.902Z,66.23
2018-04-09T16:08:18.416Z,65.57
2018-04-09T16:10:45.923Z,65.83
2018-04-09T16:13:13.475Z,65.77
2018-04-09T16:15:41.723Z,71.40
2018-04-09T16:18:09.202Z,66.10
2018-04-09T16:20:37.468Z,66.40
2018-04-09T16:23:05.751Z,69.33
2018-04-09T16:25:34.588Z,70.97
2018-04-09T16:28:02.080Z,71.83
2018-04-09T16:30:29.606Z,68.67
2018-04-09T16:32:57.125Z,69.67
2018-04-09T16:35:25.377Z,65.93
2018-04-09T16:37:52.878Z,68.93
2018-04-09T16:40:20.383Z,69.63
2018-04-09T16:42:47.865Z,69.37
2018-04-09T16:45:16.146Z,69.37
2018-04-09T16:47:44.402Z,71.07
2018-04-09T16:50:11.882Z,72.30
2018-04-09T16:52:40.129Z,73.63
2018-04-09T16:55:07.632Z,71.10
2018-04-09T16:57:35.136Z,67.67
2018-04-09T17:00:02.624Z,72.93
2018-04-09T17:02:30.128Z,71.20
2018-04-09T17:04:57.673Z,69.27
2018-04-09T17:07:25.232Z,70.80
2018-04-09T17:09:52.749Z,72.97
2018-04-09T17:12:21.042Z,69.70
2018-04-09T17:14:48.557Z,73.47
2018-04-09T17:17:16.559Z,73.87
2018-04-09T17:19:44.102Z,74.33
2018-04-09T17:22:11.690Z,73.50
2018-04-09T17:24:51.398Z,74.07
2018-04-09T17:27:18.908Z,72.60
2018-04-09T17:29:46.459Z,72.07
2018-04-09T17:32:13.987Z,75.87
2018-04-09T17:34:41.457Z,73.10
2018-04-09T17:37:08.987Z,70.13
2018-04-09T17:39:36.495Z,75.10
2018-04-09T17:42:03.980Z,70.53
2018-04-09T17:44:31.467Z,73.67
2018-04-09T17:46:58.967Z,72.93
2018-04-09T17:49:26.459Z,74.67
2018-04-09T17:51:53.965Z,76.20
2018-04-09T17:54:22.397Z,75.10
2018-04-09T17:56:49.972Z,71.20
2018-04-09T17:59:18.210Z,76.80
2018-04-09T18:01:45.841Z,76.60
2018-04-09T18:04:13.325Z,77.80
2018-04-09T18:06:41.185Z,77.37
2018-04-09T18:09:09.178Z,80.53
2018-04-09T18:11:37.444Z,77.90
2018-04-09T18:14:05.033Z,80.00
2018-04-09T18:16:33.283Z,82.97
2018-04-09T18:19:00.841Z,82.80
2018-04-09T18:21:28.424Z,80.60
2018-04-09T18:23:55.957Z,80.03
2018-04-09T18:26:23.497Z,80.10
2018-04-09T18:28:51.061Z,80.00
2018-04-09T18:31:18.589Z,76.47
2018-04-09T18:33:46.089Z,81.77
2018-04-09T18:36:13.600Z,82.87
2018-04-09T18:38:41.106Z,82.03
2018-04-09T18:41:08.597Z,81.47
2018-04-09T18:43:36.996Z,79.97
2018-04-09T18:46:04.472Z,78.60
2018-04-09T18:48:31.978Z,83.70
2018-04-09T18:50:59.475Z,82.17
2018-04-09T18:53:26.956Z,81.00
2018-04-09T18:55:54.473Z,82.30
2018-04-09T18:58:22.714Z,76.97
2018-04-09T19:00:50.209Z,80.97
2018-04-09T19:03:18.260Z,83.87
2018-04-09T19:05:45.821Z,85.67
2018-04-09T19:08:13.305Z,82.60
2018-04-09T19:10:41.569Z,82.00
2018-04-09T19:13:09.050Z,81.00
2018-04-09T19:15:36.588Z,82.30
2018-04-09T19:18:04.573Z,82.90
2018-04-09T19:20:32.361Z,80.13
2018-04-09T19:23:00.169Z,80.37
2018-04-09T19:25:27.659Z,79.60
2018-04-09T19:27:56.348Z,82.47
2018-04-09T19:30:24.061Z,82.47
2018-04-09T19:32:51.818Z,80.13
2018-04-09T19:35:20.303Z,84.83
2018-04-09T19:37:53.506Z,77.80
2018-04-09T19:40:40.860Z,81.27
2018-04-09T19:43:08.469Z,74.93
2018-04-09T19:45:36.433Z,72.53
2018-04-09T19:48:04.223Z,74.30
2018-04-09T19:50:31.818Z,76.67
2018-04-09T19:52:59.538Z,73.23
2018-04-09T19:55:27.079Z,73.33
2018-04-09T19:57:54.753Z,76.80
2018-04-09T20:00:22.873Z,75.43
2018-04-09T20:02:51.189Z,71.30
2018-04-09T20:05:18.829Z,74.17
2018-04-09T20:07:46.557Z,75.23
2018-04-09T20:10:14.292Z,70.90
2018-04-09T20:12:41.862Z,76.07
2018-04-09T20:15:09.460Z,71.53
2018-04-09T20:17:37.211Z,76.00
2018-04-09T20:20:05.776Z,72.80
2018-04-09T20:22:33.358Z,71.07
2018-04-09T20:25:01.146Z,61.07
2018-04-09T20:27:29.722Z,59.30
2018-04-09T20:29:58.161Z,61.00
2018-04-09T20:32:25.845Z,60.70
2018-04-09T20:34:53.492Z,49.40
2018-04-09T20:37:21.050Z,49.37
2018-04-09T20:39:48.576Z,47.23
2018-04-09T20:42:16.909Z,40.30
2018-04-09T20:44:44.442Z,38.30
2018-04-09T20:47:12.059Z,33.50
2018-04-09T20:49:39.600Z,32.20
2018-04-09T20:52:07.128Z,34.13
2018-04-09T20:54:34.632Z,34.17
2018-04-09T20:57:02.324Z,31.67
2018-04-09T20:59:30.560Z,38.70
2018-04-09T21:01:58.059Z,38.77
2018-04-09T21:04:26.293Z,42.30
2018-04-09T21:06:53.789Z,39.97
2018-04-09T21:09:21.270Z,40.73
2018-04-09T21:11:48.753Z,41.13
2018-04-09T21:14:16.293Z,38.57
2018-04-09T21:16:43.809Z,39.60
2018-04-09T21:19:11.314Z,36.07
2018-04-09T21:21:38.805Z,35.93
2018-04-09T21:24:06.288Z,36.33
2018-04-09T21:26:33.902Z,34.27
2018-04-09T21:29:01.384Z,33.07
2018-04-09T21:31:28.886Z,34.30
2018-04-09T21:33:57.139Z,36.10
2018-04-09T21:36:24.625Z,32.33
2018-04-09T21:38:52.889Z,35.03
2018-04-09T21:41:20.377Z,34.03
2018-04-09T21:43:47.888Z,34.43
2018-04-09T21:46:15.399Z,34.30
2018-04-09T21:48:42.919Z,37.90
2018-04-09T21:51:10.445Z,34.50
2018-04-09T21:53:37.953Z,33.57
2018-04-09T21:56:05.415Z,35.60
2018-04-09T21:58:34.382Z,35.07
2018-04-09T22:01:02.762Z,36.27
2018-04-09T22:03:30.252Z,37.33
2018-04-09T22:05:59.648Z,36.90
2018-04-09T22:08:27.910Z,37.73
2018-04-09T22:10:56.227Z,37.70
2018-04-09T22:13:23.712Z,38.83
2018-04-09T22:15:51.710Z,38.00
2018-04-09T22:18:19.198Z,38.50
2018-04-09T22:20:47.455Z,38.40
2018-04-09T22:23:14.951Z,37.17
2018-04-09T22:25:42.475Z,37.90
2018-04-09T22:28:09.973Z,39.37
2018-04-09T22:30:37.459Z,39.47
2018-04-09T22:33:04.951Z,38.47
2018-04-09T22:35:32.415Z,39.83
2018-04-09T22:37:59.908Z,42.00
2018-04-09T22:40:27.406Z,40.70
2018-04-09T22:42:54.885Z,41.40
2018-04-09T22:45:22.381Z,39.57
2018-04-09T22:47:49.851Z,40.70
2018-04-09T22:50:17.366Z,39.53
2018-04-09T22:52:44.834Z,39.50
2018-04-09T22:55:13.120Z,39.20
2018-04-09T22:57:41.357Z,39.30
2018-04-09T23:00:08.838Z,38.83
2018-04-09T23:02:36.328Z,41.43
2018-04-09T23:05:03.830Z,40.10
2018-04-09T23:07:31.320Z,39.70
2018-04-09T23:09:58.819Z,40.33
2018-04-09T23:12:26.295Z,41.73
2018-04-09T23:14:53.768Z,42.00
2018-04-09T23:17:21.264Z,42.03
2018-04-09T23:19:49.526Z,39.57
2018-04-09T23:22:28.782Z,39.60
2018-04-09T23:24:57.024Z,40.77
2018-04-09T23:27:24.580Z,41.70
2018-04-09T23:29:52.060Z,40.13
2018-04-09T23:32:19.535Z,40.23
2018-04-09T23:34:47.797Z,41.40
2018-04-09T23:37:15.345Z,41.07
2018-04-09T23:39:42.820Z,41.80
2018-04-09T23:42:11.075Z,41.70
2018-04-09T23:44:38.556Z,44.50
2018-04-09T23:47:06.159Z,42.67
2018-04-09T23:49:33.669Z,41.50
2018-04-09T23:52:01.145Z,42.87
2018-04-09T23:54:29.396Z,43.60
2018-04-09T23:56:56.882Z,38.57
2018-04-09T23:59:25.142Z,40.53
